Time;durP1;ratioP1;P1;durP2;ratioP2;P2;SDS_P1;SDS_P2;PMS_P1;PMS_P2;Temp;Humidity;BMP_temperature;BMP_pressure;BME280_temperature;BME280_humidity;BME280_pressure;Samples;Min_cycle;Max_cycle;Signal;HPM_P1;HPM_P2
2022/11/16 00:01:26;;;;;;;12.48;8.10;;;13.00;99.90;;;;;;5074571;28;20024;-75
2022/11/16 00:03:53;;;;;;;9.95;7.25;;;12.80;99.90;;;;;;5074233;28;20038;-75
2022/11/16 00:06:20;;;;;;;10.70;7.65;;;12.90;99.90;;;;;;5074461;28;20029;-75
2022/11/16 00:09:20;;;;;;;10.85;7.65;;;13.00;99.90;;;;;;5073130;28;20028;-75
2022/11/16 00:11:35;;;;;;;14.25;8.15;;;12.90;99.90;;;;;;5074165;28;20105;-75
2022/11/16 00:14:01;;;;;;;12.40;7.45;;;12.90;99.90;;;;;;5073673;28;20055;-75
2022/11/16 00:16:27;;;;;;;10.30;7.07;;;12.80;99.90;;;;;;5074161;28;20024;-75
2022/11/16 00:18:57;;;;;;;9.55;7.28;;;12.80;99.90;;;;;;5074044;28;20032;-75
2022/11/16 00:21:24;;;;;;;8.75;6.65;;;12.80;99.90;;;;;;5058293;28;20103;-75
2022/11/16 00:23:50;;;;;;;8.32;7.03;;;12.90;99.90;;;;;;5073954;28;20051;-75
2022/11/16 00:26:15;;;;;;;11.00;7.28;;;12.90;99.90;;;;;;5072836;28;20052;-75
2022/11/16 00:28:41;;;;;;;11.23;6.80;;;13.00;99.90;;;;;;5073721;28;20036;-75
2022/11/16 00:31:09;;;;;;;10.05;6.40;;;13.00;99.90;;;;;;5074077;28;20020;-75
2022/11/16 00:33:35;;;;;;;9.55;5.85;;;13.20;99.90;;;;;;5073799;28;20036;-75
2022/11/16 00:36:03;;;;;;;8.73;5.85;;;13.20;99.90;;;;;;5072443;28;20028;-75
2022/11/16 00:38:29;;;;;;;10.13;5.38;;;13.10;99.90;;;;;;5074987;28;20032;-74
2022/11/16 00:40:55;;;;;;;11.07;5.20;;;13.00;99.90;;;;;;5073433;28;20066;-75
2022/11/16 00:43:21;;;;;;;7.57;4.82;;;13.00;99.90;;;;;;5072392;28;20032;-74
2022/11/16 00:45:46;;;;;;;8.75;5.72;;;12.90;99.90;;;;;;5073307;28;20028;-75
2022/11/16 00:48:12;;;;;;;7.55;5.00;;;13.00;99.90;;;;;;5073662;28;20032;-75
2022/11/16 00:50:39;;;;;;;8.27;5.35;;;12.90;99.90;;;;;;5072183;28;20066;-75
2022/11/16 00:53:06;;;;;;;6.60;4.70;;;12.70;99.90;;;;;;5073515;28;20087;-75
2022/11/16 00:55:33;;;;;;;9.10;4.90;;;12.70;99.90;;;;;;5071919;28;20020;-74
2022/11/16 00:57:59;;;;;;;5.80;4.28;;;12.70;99.90;;;;;;5071964;28;20032;-74
2022/11/16 01:00:25;;;;;;;5.28;3.75;;;12.80;99.90;;;;;;5072170;28;20035;-75
2022/11/16 01:02:53;;;;;;;5.80;3.40;;;12.50;99.90;;;;;;5073233;28;20021;-74
2022/11/16 01:05:20;;;;;;;5.82;3.10;;;12.60;99.90;;;;;;5071924;28;20034;-74
2022/11/16 01:07:45;;;;;;;6.68;2.90;;;12.50;99.90;;;;;;5071783;28;20024;-74
2022/11/16 01:10:14;;;;;;;5.18;2.80;;;12.30;99.90;;;;;;5072843;28;20366;-76
2022/11/16 01:12:41;;;;;;;5.95;2.50;;;12.30;99.90;;;;;;5071910;28;20078;-76
2022/11/16 01:15:08;;;;;;;13.20;2.90;;;12.30;99.90;;;;;;5073096;28;20028;-75
2022/11/16 01:17:35;;;;;;;4.50;2.08;;;12.30;99.90;;;;;;5073471;28;20466;-75
2022/11/16 01:20:01;;;;;;;4.82;1.73;;;12.50;99.90;;;;;;5071423;28;20380;-74
2022/11/16 01:22:27;;;;;;;2.35;1.70;;;12.40;99.90;;;;;;5071738;28;20028;-74
2022/11/16 01:24:53;;;;;;;5.32;1.63;;;12.20;99.90;;;;;;5072508;28;20033;-74
2022/11/16 01:27:19;;;;;;;3.40;1.60;;;12.20;99.90;;;;;;5071363;28;20495;-74
2022/11/16 01:29:45;;;;;;;2.97;1.65;;;12.00;99.90;;;;;;5072856;28;20027;-75
2022/11/16 01:32:10;;;;;;;2.22;1.40;;;12.00;99.90;;;;;;5071549;28;20477;-74
2022/11/16 01:34:36;;;;;;;1.80;1.25;;;12.00;99.90;;;;;;5071609;28;20033;-74
2022/11/16 01:37:17;;;;;;;4.40;1.23;;;11.90;99.90;;;;;;5071147;28;20559;-74
2022/11/16 01:39:43;;;;;;;3.78;1.90;;;11.90;99.90;;;;;;5054711;28;20028;-74
2022/11/16 01:42:20;;;;;;;4.95;1.40;;;12.10;99.90;;;;;;5054657;28;20036;-74
2022/11/16 01:44:49;;;;;;;3.38;1.65;;;12.00;99.90;;;;;;5055294;28;20116;-74
2022/11/16 01:47:17;;;;;;;5.53;1.73;;;11.90;99.90;;;;;;5071129;28;20489;-74
2022/11/16 01:49:48;;;;;;;2.65;1.52;;;11.90;99.90;;;;;;5071551;28;20111;-74
2022/11/16 01:52:24;;;;;;;5.70;2.15;;;11.80;99.90;;;;;;5071394;28;20029;-74
2022/11/16 01:54:52;;;;;;;2.42;1.35;;;11.80;99.90;;;;;;5071146;28;20044;-74
2022/11/16 01:57:23;;;;;;;2.90;1.50;;;11.80;99.90;;;;;;5071257;28;20028;-74
2022/11/16 02:00:05;;;;;;;5.00;1.50;;;11.80;99.90;;;;;;5061947;28;20032;-74
2022/11/16 02:02:39;;;;;;;4.43;1.65;;;11.90;99.90;;;;;;5079017;28;20500;-74
2022/11/16 02:05:11;;;;;;;3.90;1.65;;;11.90;99.90;;;;;;5077910;28;20132;-74
2022/11/16 02:11:14;;;;;;;3.17;1.75;;;11.90;99.90;;;;;;5079113;28;20065;-74
2022/11/16 02:13:47;;;;;;;4.65;1.50;;;11.70;99.90;;;;;;5079022;28;20044;-74
2022/11/16 02:16:45;;;;;;;7.07;1.83;;;11.80;99.90;;;;;;5060967;28;20445;-74
2022/11/16 02:19:25;;;;;;;5.25;2.15;;;11.60;99.90;;;;;;5077959;28;20055;-74
2022/11/16 02:22:20;;;;;;;6.97;1.75;;;11.50;99.90;;;;;;5077511;28;20029;-75
2022/11/16 02:24:52;;;;;;;4.35;1.58;;;11.70;99.90;;;;;;5067304;28;20532;-74
2022/11/16 02:27:42;;;;;;;6.85;1.50;;;11.60;99.90;;;;;;5077383;28;20369;-74
2022/11/16 02:30:08;;;;;;;5.03;1.50;;;11.60;99.90;;;;;;5079140;28;20017;-74
2022/11/16 02:32:55;;;;;;;5.13;1.95;;;11.70;99.90;;;;;;5077518;28;20027;-74
2022/11/16 02:35:31;;;;;;;4.13;1.70;;;11.60;99.90;;;;;;5079022;28;20099;-74
2022/11/16 02:38:05;;;;;;;4.55;1.92;;;11.70;99.90;;;;;;5072333;28;20091;-74
2022/11/16 02:40:34;;;;;;;4.78;1.75;;;11.50;99.90;;;;;;5049622;28;20046;-74
2022/11/16 02:43:12;;;;;;;7.95;2.42;;;11.50;99.90;;;;;;5078605;28;20024;-74
2022/11/16 02:45:42;;;;;;;6.35;1.65;;;11.60;99.90;;;;;;5077489;28;20392;-74
2022/11/16 02:48:20;;;;;;;5.88;1.92;;;11.70;99.90;;;;;;5077385;28;20056;-75
2022/11/16 02:50:47;;;;;;;5.57;1.55;;;11.70;99.90;;;;;;5077744;28;20028;-74
2022/11/16 02:53:14;;;;;;;6.43;1.80;;;11.60;99.90;;;;;;5077325;28;20094;-74
2022/11/16 02:55:40;;;;;;;4.03;1.60;;;11.60;99.90;;;;;;5077456;28;20056;-74
2022/11/16 02:58:09;;;;;;;8.10;1.65;;;11.70;99.90;;;;;;5077391;28;20029;-74
2022/11/16 03:00:48;;;;;;;9.35;1.73;;;11.80;99.90;;;;;;5078494;28;20103;-74
2022/11/16 03:03:24;;;;;;;11.60;1.88;;;11.70;99.90;;;;;;5077460;28;20028;-74
2022/11/16 03:05:55;;;;;;;8.27;1.88;;;11.50;99.90;;;;;;5077169;28;20066;-74
2022/11/16 03:08:29;;;;;;;7.82;2.08;;;11.40;99.90;;;;;;5060714;28;20024;-75
2022/11/16 03:13:59;;;;;;;9.48;1.98;;;11.50;99.90;;;;;;5074017;28;20048;-74
2022/11/16 03:16:30;;;;;;;7.72;1.50;;;11.40;99.90;;;;;;5075847;28;20031;-73
2022/11/16 03:19:01;;;;;;;5.32;1.45;;;11.20;99.90;;;;;;5074449;28;20099;-74
2022/11/16 03:21:29;;;;;;;7.75;1.50;;;11.10;99.90;;;;;;5073855;28;20111;-74
2022/11/16 03:23:55;;;;;;;5.68;1.60;;;11.10;99.90;;;;;;5075128;28;20031;-74
2022/11/16 03:26:25;;;;;;;6.63;1.63;;;11.10;99.90;;;;;;5074084;28;20021;-74
2022/11/16 03:29:17;;;;;;;13.30;2.60;;;11.10;99.90;;;;;;5075140;28;20036;-74
2022/11/16 03:31:51;;;;;;;12.35;1.88;;;11.10;99.90;;;;;;5073767;28;20028;-74
2022/11/16 03:34:24;;;;;;;9.98;2.53;;;11.20;99.90;;;;;;5073555;28;20052;-75
2022/11/16 03:36:52;;;;;;;11.05;2.25;;;11.10;99.90;;;;;;5056808;28;20024;-74
2022/11/16 03:39:27;;;;;;;10.38;2.45;;;11.10;99.90;;;;;;5073682;28;20118;-74
2022/11/16 03:41:58;;;;;;;10.20;1.88;;;11.00;99.90;;;;;;5073475;28;20078;-75
2022/11/16 03:44:25;;;;;;;10.50;2.28;;;10.90;99.90;;;;;;5073707;28;20029;-77
2022/11/16 03:46:51;;;;;;;3.85;1.70;;;10.90;99.90;;;;;;5073501;28;20027;-75
2022/11/16 03:49:21;;;;;;;9.80;1.63;;;10.90;99.90;;;;;;5074881;28;20108;-75
2022/11/16 03:51:48;;;;;;;10.00;1.98;;;11.00;99.90;;;;;;5073575;28;20032;-75
2022/11/16 03:54:14;;;;;;;9.30;1.80;;;10.90;99.90;;;;;;5073362;28;20045;-75
2022/11/16 03:56:40;;;;;;;9.50;1.77;;;10.90;99.90;;;;;;5073264;28;20028;-75
2022/11/16 03:59:07;;;;;;;16.85;2.05;;;11.00;99.90;;;;;;5073093;28;20494;-75
2022/11/16 04:01:33;;;;;;;10.15;2.45;;;11.00;99.90;;;;;;5073368;28;20028;-75
2022/11/16 04:03:59;;;;;;;6.53;1.95;;;11.10;99.90;;;;;;5072745;28;20025;-75
2022/11/16 04:25:52;;;;;;;9.88;2.20;;;10.70;99.90;;;;;;5072681;28;20025;-75
2022/11/16 04:28:22;;;;;;;6.93;2.03;;;10.70;99.90;;;;;;5072675;28;20023;-76
2022/11/16 04:39:20;;;;;;;6.82;2.33;;;10.40;99.90;;;;;;5072232;28;20036;-75
2022/11/16 04:47:23;;;;;;;11.02;2.47;;;10.60;99.90;;;;;;5072119;28;20032;-76
2022/11/16 04:49:49;;;;;;;9.48;2.50;;;10.70;99.90;;;;;;5073246;28;20507;-76
2022/11/16 04:52:14;;;;;;;10.75;2.75;;;10.50;99.90;;;;;;5072232;28;20020;-76
2022/11/16 04:54:43;;;;;;;8.15;2.55;;;10.40;99.90;;;;;;5061239;28;20044;-76
2022/11/16 04:57:10;;;;;;;11.30;2.53;;;10.40;99.90;;;;;;5071346;28;20021;-76
2022/11/16 04:59:35;;;;;;;13.38;3.30;;;10.50;99.90;;;;;;5071824;28;20024;-75
2022/11/16 05:02:07;;;;;;;15.50;2.75;;;10.40;99.90;;;;;;5071876;28;20060;-75
2022/11/16 05:04:38;;;;;;;11.02;2.88;;;10.40;99.90;;;;;;5072245;28;20108;-76
2022/11/16 05:07:09;;;;;;;10.73;2.85;;;10.30;99.90;;;;;;5071874;28;20116;-75
2022/11/16 05:09:42;;;;;;;12.10;3.72;;;10.30;99.90;;;;;;5072091;28;20071;-75
2022/11/16 05:12:15;;;;;;;15.43;3.50;;;10.30;99.90;;;;;;5071670;28;20119;-75
2022/11/16 05:14:42;;;;;;;13.82;2.83;;;10.30;99.90;;;;;;5072038;28;20464;-75
2022/11/16 05:17:09;;;;;;;7.53;2.45;;;10.30;99.90;;;;;;5071357;28;20111;-76
2022/11/16 05:22:21;;;;;;;8.65;2.80;;;10.20;99.90;;;;;;5071510;28;20031;-74
2022/11/16 05:24:48;;;;;;;11.10;3.53;;;10.20;99.90;;;;;;5071752;28;20091;-75
2022/11/16 05:27:16;;;;;;;12.48;4.03;;;10.10;99.90;;;;;;5071636;28;20123;-74
2022/11/16 05:29:43;;;;;;;15.40;3.88;;;10.00;99.90;;;;;;5072091;28;20043;-75
2022/11/16 05:32:12;;;;;;;11.95;3.63;;;10.00;99.90;;;;;;5070990;28;20138;-75
2022/11/16 05:34:38;;;;;;;12.02;3.80;;;9.80;99.90;;;;;;5070926;28;20032;-75
2022/11/16 05:37:04;;;;;;;18.60;3.53;;;9.70;99.90;;;;;;5071422;28;20074;-75
2022/11/16 05:39:30;;;;;;;10.95;4.20;;;9.80;99.90;;;;;;5071637;28;20024;-74
2022/11/16 05:41:57;;;;;;;11.48;3.40;;;9.90;99.90;;;;;;5071329;28;20024;-75
2022/11/16 05:44:23;;;;;;;16.27;4.15;;;9.70;99.90;;;;;;5072764;28;20078;-74
2022/11/16 05:46:50;;;;;;;18.02;3.78;;;9.70;99.90;;;;;;5071279;28;20131;-74
2022/11/16 05:49:18;;;;;;;19.13;4.43;;;9.70;99.90;;;;;;5071411;28;20477;-75
2022/11/16 05:51:45;;;;;;;13.00;3.75;;;9.60;99.90;;;;;;5071108;28;20025;-75
2022/11/16 05:54:19;;;;;;;14.27;4.13;;;9.70;99.90;;;;;;5071354;28;20133;-75
2022/11/16 05:56:46;;;;;;;14.90;4.10;;;9.60;99.90;;;;;;5055163;28;20032;-74
2022/11/16 05:59:13;;;;;;;15.60;4.00;;;9.60;99.90;;;;;;5071420;28;20028;-74
2022/11/16 06:01:39;;;;;;;16.55;4.63;;;9.60;99.90;;;;;;5072375;28;20109;-74
2022/11/16 06:04:07;;;;;;;16.35;5.13;;;9.70;99.90;;;;;;5054774;28;20234;-74
2022/11/16 06:06:33;;;;;;;14.68;4.18;;;9.70;99.90;;;;;;5072512;28;20016;-74
2022/11/16 06:09:00;;;;;;;17.65;3.72;;;9.70;99.90;;;;;;5072433;28;20017;-74
2022/11/16 06:11:26;;;;;;;22.50;4.13;;;9.60;99.90;;;;;;5071254;28;20035;-74
2022/11/16 06:13:52;;;;;;;13.68;3.95;;;9.50;99.90;;;;;;5071028;28;20036;-74
2022/11/16 06:16:18;;;;;;;12.18;3.80;;;9.60;99.90;;;;;;5070798;28;20403;-75
2022/11/16 06:18:46;;;;;;;18.80;4.68;;;9.50;99.90;;;;;;5071022;28;20029;-74
2022/11/16 06:21:16;;;;;;;12.60;3.08;;;9.50;99.90;;;;;;5071060;28;20484;-74
2022/11/16 06:23:42;;;;;;;20.13;3.40;;;9.50;99.90;;;;;;5071009;28;20488;-74
2022/11/16 06:26:09;;;;;;;17.23;4.35;;;9.50;99.90;;;;;;5071067;28;20107;-74
2022/11/16 06:28:36;;;;;;;16.50;4.35;;;9.40;99.90;;;;;;5070985;28;20043;-75
2022/11/16 06:31:03;;;;;;;25.50;3.65;;;9.40;99.90;;;;;;5070603;28;20034;-75
2022/11/16 06:33:33;;;;;;;20.98;3.88;;;9.40;99.90;;;;;;5070404;28;20036;-76
2022/11/16 06:35:58;;;;;;;18.13;3.78;;;9.30;99.90;;;;;;5071131;28;20559;-76
2022/11/16 06:38:24;;;;;;;26.17;4.80;;;9.40;99.90;;;;;;5070763;28;20350;-77
2022/11/16 06:40:55;;;;;;;12.20;3.85;;;9.30;99.90;;;;;;5071062;28;20035;-74
2022/11/16 06:43:24;;;;;;;20.02;3.47;;;9.30;99.90;;;;;;5070288;28;20071;-74
2022/11/16 06:45:52;;;;;;;14.30;3.17;;;9.30;99.90;;;;;;5073004;28;20032;-75
2022/11/16 06:48:18;;;;;;;17.10;3.33;;;9.40;99.90;;;;;;5074798;28;20060;-75
2022/11/16 06:50:50;;;;;;;18.73;3.47;;;9.30;99.90;;;;;;5074799;28;20021;-74
2022/11/16 06:53:18;;;;;;;13.70;3.78;;;9.30;99.90;;;;;;5074171;28;20036;-74
2022/11/16 06:55:45;;;;;;;17.77;3.72;;;9.20;99.90;;;;;;5074348;28;20155;-74
2022/11/16 06:58:12;;;;;;;19.30;3.92;;;9.20;99.90;;;;;;5073312;28;20031;-74
2022/11/16 07:00:40;;;;;;;21.63;4.03;;;9.10;99.90;;;;;;5073914;28;20013;-76
2022/11/16 07:03:07;;;;;;;18.10;3.30;;;9.10;99.90;;;;;;5074258;28;20025;-74
2022/11/16 07:05:39;;;;;;;16.30;3.50;;;9.10;99.90;;;;;;5074125;28;20028;-74
2022/11/16 07:08:07;;;;;;;13.63;3.42;;;9.10;99.90;;;;;;5074268;28;20033;-75
2022/11/16 07:10:33;;;;;;;28.95;4.25;;;9.10;99.90;;;;;;5073403;28;20446;-75
2022/11/16 07:13:02;;;;;;;20.90;4.38;;;9.20;99.90;;;;;;5062925;28;20071;-76
2022/11/16 07:15:28;;;;;;;11.65;3.22;;;9.20;99.90;;;;;;5074030;28;20029;-75
2022/11/16 07:17:55;;;;;;;15.43;3.22;;;9.10;99.90;;;;;;5074090;28;20056;-73
2022/11/16 07:20:21;;;;;;;25.80;4.30;;;9.00;99.90;;;;;;5074083;28;20029;-75
2022/11/16 07:22:47;;;;;;;20.48;3.55;;;9.00;99.90;;;;;;5073797;28;20028;-74
2022/11/16 07:25:16;;;;;;;13.68;3.63;;;9.00;99.90;;;;;;5073913;28;20024;-75
2022/11/16 07:27:41;;;;;;;17.67;3.28;;;9.00;99.90;;;;;;5073492;28;20039;-75
2022/11/16 07:30:09;;;;;;;17.05;3.40;;;9.00;99.90;;;;;;5074058;28;20040;-75
2022/11/16 07:32:38;;;;;;;16.63;3.35;;;9.00;99.90;;;;;;5052484;28;20474;-75
2022/11/16 07:35:16;;;;;;;16.20;3.30;;;9.00;99.90;;;;;;5063847;28;20127;-75
2022/11/16 07:37:42;;;;;;;20.25;3.67;;;9.00;99.90;;;;;;5074018;28;20108;-75
2022/11/16 07:40:09;;;;;;;32.83;5.13;;;9.00;99.90;;;;;;5072904;28;20035;-74
2022/11/16 07:42:37;;;;;;;29.65;4.47;;;9.00;99.90;;;;;;5070529;28;20058;-75
2022/11/16 07:45:16;;;;;;;20.08;4.38;;;9.10;99.90;;;;;;5041735;28;20032;-75
2022/11/16 07:47:52;;;;;;;23.90;4.82;;;9.10;99.90;;;;;;5053435;28;20029;-75
2022/11/16 07:50:25;;;;;;;22.05;4.57;;;9.10;99.90;;;;;;5054865;28;20028;-75
2022/11/16 07:52:54;;;;;;;19.60;4.65;;;9.20;99.90;;;;;;5052448;28;20032;-75
2022/11/16 07:55:23;;;;;;;15.30;4.65;;;9.20;99.90;;;;;;5060091;28;20040;-75
2022/11/16 07:57:50;;;;;;;21.42;4.10;;;9.20;99.90;;;;;;5054284;28;20021;-75
2022/11/16 08:00:16;;;;;;;13.68;3.78;;;9.20;99.90;;;;;;5053943;28;20826;-75
2022/11/16 08:02:49;;;;;;;17.42;4.10;;;9.10;99.90;;;;;;5053196;28;20021;-75
2022/11/16 08:05:18;;;;;;;25.27;4.07;;;9.20;99.90;;;;;;5057892;28;20419;-75
2022/11/16 08:07:46;;;;;;;14.52;3.80;;;9.30;99.90;;;;;;5053798;28;20021;-75
2022/11/16 08:10:12;;;;;;;15.23;3.53;;;9.50;99.90;;;;;;5058077;28;20029;-75
2022/11/16 08:12:39;;;;;;;14.80;3.40;;;9.60;99.90;;;;;;5055107;28;20194;-75
2022/11/16 08:15:06;;;;;;;17.13;4.28;;;9.70;99.90;;;;;;5052989;28;20041;-75
2022/11/16 08:17:32;;;;;;;16.90;3.42;;;9.70;99.90;;;;;;5059693;28;20024;-75
2022/11/16 08:19:58;;;;;;;13.95;3.17;;;9.70;99.90;;;;;;5054691;28;20040;-74
2022/11/16 08:22:24;;;;;;;17.38;3.38;;;9.70;99.90;;;;;;5056817;28;20029;-74
2022/11/16 08:24:50;;;;;;;13.05;3.72;;;9.80;99.90;;;;;;5054056;28;20032;-75
2022/11/16 08:27:16;;;;;;;18.13;3.55;;;9.80;99.90;;;;;;5052088;28;20064;-75
2022/11/16 08:29:45;;;;;;;16.80;3.13;;;10.00;99.90;;;;;;5058679;28;20052;-75
2022/11/16 08:32:11;;;;;;;16.00;2.70;;;9.90;99.90;;;;;;5055153;28;20070;-76
2022/11/16 08:34:37;;;;;;;14.68;2.65;;;10.00;99.90;;;;;;5071191;28;20029;-76
2022/11/16 08:37:04;;;;;;;14.20;3.40;;;10.00;99.90;;;;;;5055366;28;20029;-75
2022/11/16 08:39:42;;;;;;;10.77;2.90;;;10.10;99.90;;;;;;5071502;28;20396;-76
2022/11/16 08:42:08;;;;;;;14.35;2.97;;;10.10;99.90;;;;;;5071526;28;20052;-75
2022/11/16 08:44:34;;;;;;;14.15;3.25;;;10.10;99.90;;;;;;5059492;28;20025;-75
2022/11/16 08:47:04;;;;;;;10.80;3.15;;;10.20;99.90;;;;;;5040292;28;20025;-75
2022/11/16 08:49:37;;;;;;;13.27;2.90;;;10.40;99.90;;;;;;5053352;28;20475;-75
2022/11/16 08:52:04;;;;;;;13.05;2.80;;;10.40;99.90;;;;;;5049924;28;20028;-75
2022/11/16 08:54:30;;;;;;;13.50;3.03;;;10.50;99.90;;;;;;5052646;28;20056;-75
2022/11/16 08:56:56;;;;;;;12.38;2.88;;;10.50;99.90;;;;;;5060404;28;20060;-75
2022/11/16 08:59:22;;;;;;;12.38;2.85;;;10.60;99.90;;;;;;5041632;28;20398;-75
2022/11/16 09:01:50;;;;;;;15.15;2.33;;;10.70;99.90;;;;;;5048117;28;20017;-74
2022/11/16 09:04:17;;;;;;;10.50;2.85;;;10.80;99.90;;;;;;5054750;28;20017;-76
2022/11/16 09:06:43;;;;;;;16.58;2.58;;;10.90;99.90;;;;;;5053147;28;20028;-76
2022/11/16 09:09:10;;;;;;;12.55;2.65;;;11.10;99.90;;;;;;5059662;28;20033;-76
2022/11/16 09:11:36;;;;;;;12.50;1.80;;;11.10;99.90;;;;;;5059535;28;20104;-77
2022/11/16 09:14:02;;;;;;;11.68;2.40;;;11.20;99.90;;;;;;5055245;28;20037;-76
2022/11/16 09:16:28;;;;;;;11.00;1.92;;;11.20;99.90;;;;;;5055040;28;20024;-77
2022/11/16 09:18:54;;;;;;;18.25;2.78;;;11.40;99.90;;;;;;5052263;28;20064;-76
2022/11/16 09:21:23;;;;;;;8.10;2.30;;;11.40;99.90;;;;;;5058535;28;20028;-76
2022/11/16 09:23:49;;;;;;;13.60;1.88;;;11.40;99.90;;;;;;5053557;28;20056;-76
2022/11/16 09:26:19;;;;;;;10.52;2.30;;;11.60;99.90;;;;;;5050568;28;20087;-76
2022/11/16 09:28:45;;;;;;;16.02;2.70;;;12.00;99.90;;;;;;5046793;28;20406;-76
2022/11/16 09:31:11;;;;;;;14.10;3.00;;;11.80;99.90;;;;;;5058984;28;20100;-76
2022/11/16 09:33:37;;;;;;;12.13;2.45;;;12.10;99.90;;;;;;5056680;28;20111;-76
2022/11/16 09:36:07;;;;;;;13.60;2.63;;;12.20;99.90;;;;;;5053198;28;20031;-77
2022/11/16 09:38:41;;;;;;;12.02;1.95;;;12.00;99.90;;;;;;5060180;28;20139;-77
2022/11/16 09:41:14;;;;;;;10.00;1.50;;;12.10;99.90;;;;;;5045099;28;20059;-77
2022/11/16 09:43:55;;;;;;;8.48;1.95;;;11.90;99.90;;;;;;5061808;28;20028;-76
2022/11/16 09:46:28;;;;;;;7.05;2.40;;;12.10;99.90;;;;;;5059967;28;20031;-80
2022/11/16 09:48:57;;;;;;;14.25;2.85;;;11.80;99.90;;;;;;5054267;28;20033;-77
2022/11/16 09:51:24;;;;;;;6.70;1.85;;;11.70;99.90;;;;;;5047641;28;20029;-76
2022/11/16 09:53:58;;;;;;;13.95;2.42;;;11.60;99.90;;;;;;5052381;28;20041;-77
2022/11/16 09:56:25;;;;;;;9.98;2.38;;;11.70;99.90;;;;;;5034539;28;20052;-77
2022/11/16 09:59:06;;;;;;;15.60;2.75;;;11.80;99.90;;;;;;5046538;28;20461;-77
2022/11/16 10:01:47;;;;;;;12.38;2.63;;;11.70;99.90;;;;;;5050788;28;20048;-77
2022/11/16 10:04:25;;;;;;;8.50;1.73;;;11.40;99.90;;;;;;5045084;28;20079;-76
2022/11/16 10:07:02;;;;;;;18.90;2.75;;;11.40;99.90;;;;;;5044930;28;20033;-77
2022/11/16 10:09:29;;;;;;;10.68;3.22;;;11.20;99.90;;;;;;5059225;28;20108;-76
2022/11/16 10:12:02;;;;;;;6.85;2.90;;;11.00;99.90;;;;;;5055555;28;20021;-77
2022/11/16 10:14:42;;;;;;;8.02;3.20;;;11.00;99.90;;;;;;5047478;28;20043;-76
2022/11/16 10:17:32;;;;;;;14.82;3.38;;;11.10;99.90;;;;;;5062501;28;20029;-77
2022/11/16 10:20:09;;;;;;;16.73;3.83;;;11.00;99.90;;;;;;5048226;28;20033;-78
2022/11/16 10:22:38;;;;;;;11.70;3.22;;;11.10;99.90;;;;;;5050471;28;20032;-77
2022/11/16 10:25:27;;;;;;;12.88;3.00;;;11.10;99.90;;;;;;5054692;28;20070;-78
2022/11/16 10:28:14;;;;;;;10.10;3.47;;;11.20;99.90;;;;;;5055005;28;20104;-77
2022/11/16 10:30:53;;;;;;;9.00;2.55;;;11.30;99.90;;;;;;5060259;28;20021;-77
2022/11/16 10:33:22;;;;;;;15.85;3.10;;;11.20;99.90;;;;;;5074184;28;20041;-76
2022/11/16 10:35:54;;;;;;;14.82;3.63;;;11.30;99.90;;;;;;5073528;28;20093;-77
2022/11/16 10:38:27;;;;;;;15.98;4.30;;;11.40;99.90;;;;;;5075201;28;20071;-77
2022/11/16 10:41:02;;;;;;;6.93;2.67;;;11.40;99.90;;;;;;5075241;28;20021;-76
2022/11/16 10:43:30;;;;;;;14.20;4.75;;;11.20;99.90;;;;;;5073448;28;20039;-77
2022/11/16 10:46:05;;;;;;;17.17;4.70;;;11.50;99.90;;;;;;5075063;28;20400;-77
2022/11/16 10:48:49;;;;;;;8.57;4.00;;;11.80;99.90;;;;;;5073721;28;20039;-77
2022/11/16 10:51:15;;;;;;;14.07;4.50;;;12.10;99.90;;;;;;5074035;28;20101;-77
2022/11/16 10:53:45;;;;;;;14.68;5.28;;;12.00;99.90;;;;;;5053126;28;20540;-77
2022/11/16 10:56:36;;;;;;;14.45;4.78;;;11.90;99.90;;;;;;5055305;28;20021;-77
2022/11/16 10:59:13;;;;;;;19.67;4.63;;;12.30;99.90;;;;;;5054380;28;20051;-76
2022/11/16 11:01:42;;;;;;;12.10;3.70;;;12.40;99.90;;;;;;5046968;28;20324;-77
2022/11/16 11:04:26;;;;;;;10.13;3.42;;;12.50;99.90;;;;;;5035738;28;20036;-77
2022/11/16 11:06:54;;;;;;;13.93;3.90;;;12.50;99.90;;;;;;5051594;28;20049;-76
2022/11/16 11:09:27;;;;;;;14.10;3.50;;;12.70;99.90;;;;;;5057218;28;20077;-76
2022/11/16 11:14:58;;;;;;;15.55;2.80;;;13.10;99.90;;;;;;5052859;28;20052;-76
2022/11/16 11:17:24;;;;;;;16.40;2.95;;;13.50;99.90;;;;;;5061002;28;20049;-76
2022/11/16 11:19:59;;;;;;;10.02;3.05;;;13.50;99.90;;;;;;5059154;28;20064;-76
2022/11/16 11:22:25;;;;;;;10.82;1.92;;;13.60;99.90;;;;;;5057325;28;20027;-76
2022/11/16 11:24:52;;;;;;;8.30;1.95;;;13.70;99.90;;;;;;5054452;28;20117;-77
2022/11/16 11:27:27;;;;;;;9.73;1.77;;;14.20;99.90;;;;;;5062356;28;20473;-76
2022/11/16 11:29:57;;;;;;;12.55;2.40;;;14.80;99.90;;;;;;5062714;28;20039;-75
2022/11/16 11:32:29;;;;;;;8.95;2.30;;;14.40;99.90;;;;;;5059756;28;20089;-76
2022/11/16 11:34:56;;;;;;;8.90;1.98;;;14.30;99.90;;;;;;5073225;28;20025;-76
2022/11/16 11:37:27;;;;;;;13.40;2.85;;;14.20;99.90;;;;;;5074176;28;20476;-76
2022/11/16 11:40:13;;;;;;;8.32;2.50;;;13.80;99.90;;;;;;5073475;28;20062;-76
2022/11/16 11:42:42;;;;;;;11.80;2.50;;;13.10;99.90;;;;;;5069024;28;20145;-76
2022/11/16 11:45:13;;;;;;;14.25;2.25;;;12.90;99.90;;;;;;5065124;28;20016;-76
2022/11/16 11:47:50;;;;;;;10.68;2.10;;;13.00;99.90;;;;;;5047260;28;20059;-76
2022/11/16 11:50:20;;;;;;;12.05;2.28;;;13.20;99.90;;;;;;5055149;28;20032;-76
2022/11/16 11:52:46;;;;;;;10.40;2.28;;;13.80;99.90;;;;;;5067356;28;20031;-76
2022/11/16 11:55:14;;;;;;;7.53;2.42;;;14.40;99.90;;;;;;5061118;28;20029;-76
2022/11/16 11:57:43;;;;;;;11.85;2.40;;;14.90;99.90;;;;;;5046590;28;20025;-76
2022/11/16 12:00:13;;;;;;;9.00;2.08;;;14.90;99.90;;;;;;5051871;28;20025;-76
2022/11/16 12:02:58;;;;;;;11.30;3.40;;;15.00;99.90;;;;;;5055773;28;20503;-77
2022/11/16 12:05:44;;;;;;;11.25;2.40;;;15.20;99.90;;;;;;5062815;28;20017;-76
2022/11/16 12:08:54;;;;;;;12.52;2.53;;;15.10;99.90;;;;;;5052733;28;20032;-76
2022/11/16 12:12:00;;;;;;;12.27;3.35;;;13.90;99.90;;;;;;5045418;28;20040;-76
2022/11/16 12:14:58;;;;;;;8.63;2.63;;;13.40;99.90;;;;;;5064120;28;20037;-76
2022/11/16 12:17:48;;;;;;;15.85;3.40;;;13.10;99.90;;;;;;5042860;28;20025;-75
2022/11/16 12:20:26;;;;;;;15.65;2.92;;;12.90;99.90;;;;;;5056859;28;20033;-76
2022/11/16 12:23:13;;;;;;;11.25;2.42;;;12.80;99.90;;;;;;5053102;28;20033;-76
2022/11/16 12:25:57;;;;;;;12.85;2.83;;;12.70;99.90;;;;;;5063043;28;20489;-76
2022/11/16 12:29:02;;;;;;;15.45;3.10;;;12.80;99.90;;;;;;5059899;28;20071;-76
2022/11/16 12:31:43;;;;;;;16.35;2.92;;;12.80;99.90;;;;;;5093928;28;20020;-76
2022/11/16 12:34:26;;;;;;;19.48;3.70;;;12.80;99.90;;;;;;5107290;28;20051;-76
2022/11/16 12:37:38;;;;;;;16.40;3.15;;;12.80;99.90;;;;;;5077812;28;20539;-76
2022/11/16 12:40:07;;;;;;;16.73;2.47;;;12.80;99.90;;;;;;5070643;28;20032;-75
2022/11/16 12:42:47;;;;;;;13.75;3.30;;;12.70;99.90;;;;;;5070489;28;20025;-75
2022/11/16 12:45:15;;;;;;;5.18;1.73;;;12.60;99.90;;;;;;5057508;28;20481;-75
2022/11/16 12:47:40;;;;;;;10.38;2.20;;;12.40;99.90;;;;;;5064238;28;20028;-75
2022/11/16 12:50:26;;;;;;;11.80;2.20;;;12.30;99.90;;;;;;5071432;28;20100;-75
2022/11/16 12:53:11;;;;;;;12.90;2.80;;;12.30;99.90;;;;;;5056435;28;20111;-75
2022/11/16 12:55:54;;;;;;;15.02;2.55;;;13.10;99.90;;;;;;5055897;28;20059;-75
2022/11/16 12:58:41;;;;;;;17.30;3.10;;;13.40;99.90;;;;;;5072579;28;20032;-75
2022/11/16 13:01:19;;;;;;;13.45;2.30;;;13.60;99.90;;;;;;5055990;28;20373;-76
2022/11/16 13:03:52;;;;;;;8.02;2.50;;;13.60;99.90;;;;;;5061798;28;20041;-76
2022/11/16 13:06:35;;;;;;;15.27;3.13;;;13.20;99.90;;;;;;5058241;28;20025;-75
2022/11/16 13:09:10;;;;;;;15.00;3.20;;;13.10;99.90;;;;;;5052399;28;20017;-75
2022/11/16 13:11:49;;;;;;;9.65;2.78;;;12.80;99.90;;;;;;5063564;28;20028;-75
2022/11/16 13:14:43;;;;;;;15.43;3.72;;;12.60;99.90;;;;;;5060635;28;20037;-75
2022/11/16 13:17:26;;;;;;;12.98;3.28;;;12.60;99.90;;;;;;5059389;28;20135;-75
2022/11/16 13:20:05;;;;;;;14.88;3.00;;;12.50;99.90;;;;;;5054589;28;20037;-75
2022/11/16 13:22:33;;;;;;;11.57;2.33;;;12.90;99.90;;;;;;5055266;28;20035;-76
2022/11/16 13:25:21;;;;;;;9.43;2.30;;;13.90;99.90;;;;;;5067616;28;20032;-76
2022/11/16 13:28:04;;;;;;;10.73;1.92;;;14.80;99.90;;;;;;5057802;28;20087;-77
2022/11/16 13:30:59;;;;;;;23.13;2.83;;;15.40;99.90;;;;;;5055601;28;20385;-76
2022/11/16 13:33:46;;;;;;;19.13;2.75;;;16.10;99.90;;;;;;5069126;28;20041;-76
2022/11/16 13:36:44;;;;;;;13.77;2.90;;;16.30;99.90;;;;;;5071322;28;20037;-76
2022/11/16 13:39:18;;;;;;;11.75;2.13;;;15.30;99.90;;;;;;5071463;28;20491;-75
2022/11/16 13:41:46;;;;;;;9.82;2.58;;;14.90;99.90;;;;;;5070123;28;20115;-76
2022/11/16 13:44:21;;;;;;;9.18;2.30;;;15.40;99.90;;;;;;5072589;28;20465;-76
2022/11/16 13:46:58;;;;;;;10.98;2.78;;;15.20;99.90;;;;;;5072575;28;20039;-78
2022/11/16 13:49:37;;;;;;;9.60;2.58;;;15.70;99.90;;;;;;5073043;28;20090;-76
2022/11/16 13:52:07;;;;;;;10.82;2.47;;;16.00;99.90;;;;;;5072425;28;20469;-77